createdAt,value
2022-12-16T00:01:35.906Z,3.08
2022-12-16T00:04:03.266Z,3.00
2022-12-16T00:06:33.794Z,3.10
2022-12-16T00:09:04.236Z,3.05
2022-12-16T00:11:32.466Z,3.25
2022-12-16T00:13:59.899Z,2.83
2022-12-16T00:16:27.384Z,2.83
2022-12-16T00:18:54.641Z,3.00
2022-12-16T00:21:22.012Z,2.60
2022-12-16T00:23:49.266Z,2.80
2022-12-16T00:26:16.513Z,2.50
2022-12-16T00:28:44.018Z,2.70
2022-12-16T00:31:11.587Z,2.22
2022-12-16T00:33:39.141Z,2.47
2022-12-16T00:36:07.416Z,2.42
2022-12-16T00:38:35.655Z,2.20
2022-12-16T00:41:03.352Z,2.28
2022-12-16T00:43:30.984Z,2.15
2022-12-16T00:45:58.590Z,2.15
2022-12-16T00:48:25.840Z,2.20
2022-12-16T00:50:55.277Z,2.33
2022-12-16T00:53:23.845Z,1.90
2022-12-16T00:55:51.997Z,1.77
2022-12-16T00:58:19.332Z,1.80
2022-12-16T01:00:46.604Z,1.83
2022-12-16T01:03:19.511Z,1.80
2022-12-16T01:05:48.848Z,1.80
2022-12-16T01:08:16.089Z,1.80
2022-12-16T01:10:43.361Z,1.67
2022-12-16T01:13:10.619Z,1.65
2022-12-16T01:15:38.483Z,1.77
2022-12-16T01:18:05.849Z,1.75
2022-12-16T01:20:34.424Z,1.80
2022-12-16T01:23:01.636Z,1.52
2022-12-16T01:25:28.881Z,1.27
2022-12-16T01:27:56.174Z,1.48
2022-12-16T01:30:24.637Z,1.50
2022-12-16T01:32:51.923Z,1.63
2022-12-16T01:35:51.552Z,1.45
2022-12-16T01:38:06.722Z,1.52
2022-12-16T01:40:33.946Z,1.70
2022-12-16T01:43:01.177Z,1.60
2022-12-16T01:45:37.382Z,1.42
2022-12-16T01:48:43.920Z,1.23
2022-12-16T01:51:39.326Z,1.30
2022-12-16T01:56:48.536Z,1.27
2022-12-16T01:59:18.952Z,1.30
2022-12-16T02:01:46.310Z,1.33
2022-12-16T02:04:13.842Z,1.30
2022-12-16T02:06:41.061Z,1.15
2022-12-16T02:09:11.674Z,1.17
2022-12-16T02:12:00.354Z,1.20
2022-12-16T02:15:11.038Z,1.30
2022-12-16T02:17:53.639Z,1.40
2022-12-16T02:20:59.408Z,1.10
2022-12-16T02:23:56.139Z,1.30
2022-12-16T02:26:38.936Z,1.10
2022-12-16T02:29:33.477Z,1.10
2022-12-16T02:32:17.645Z,1.10
2022-12-16T02:35:10.271Z,1.00
2022-12-16T02:37:53.660Z,1.08
2022-12-16T02:40:34.585Z,1.17
2022-12-16T02:43:11.213Z,0.93
2022-12-16T02:45:40.340Z,1.13
2022-12-16T02:48:07.640Z,0.90
2022-12-16T02:50:48.142Z,0.90
2022-12-16T02:53:15.572Z,0.90
2022-12-16T02:55:57.783Z,0.80
2022-12-16T02:58:24.946Z,0.93
2022-12-16T03:01:09.677Z,0.88
2022-12-16T03:03:58.394Z,0.90
2022-12-16T03:06:27.610Z,0.90
2022-12-16T03:08:59.833Z,0.90
2022-12-16T03:11:30.118Z,1.02
2022-12-16T03:14:00.246Z,0.88
2022-12-16T03:16:32.286Z,0.90
2022-12-16T03:19:04.082Z,0.93
2022-12-16T03:21:58.314Z,0.80
2022-12-16T03:24:26.806Z,0.70
2022-12-16T03:27:23.120Z,0.90
2022-12-16T03:30:17.881Z,0.80
2022-12-16T03:32:54.672Z,0.80
2022-12-16T03:35:40.715Z,0.75
2022-12-16T03:38:11.115Z,0.80
2022-12-16T03:40:41.575Z,0.80
2022-12-16T03:43:10.778Z,0.80
2022-12-16T03:45:40.650Z,0.80
2022-12-16T03:48:09.558Z,0.70
2022-12-16T03:50:38.024Z,0.70
2022-12-16T03:53:06.094Z,0.80
2022-12-16T03:55:33.589Z,0.73
2022-12-16T03:58:00.995Z,0.68
2022-12-16T04:00:28.225Z,0.85
2022-12-16T04:02:55.637Z,0.65
2022-12-16T04:05:23.370Z,0.85
2022-12-16T04:07:50.712Z,0.80
2022-12-16T04:10:38.433Z,0.73
2022-12-16T04:13:24.402Z,0.70
2022-12-16T04:16:14.677Z,0.75
2022-12-16T04:19:01.084Z,0.60
2022-12-16T04:21:47.192Z,0.60
2022-12-16T04:24:19.864Z,0.90
2022-12-16T04:27:14.864Z,0.90
2022-12-16T04:30:02.175Z,0.80
2022-12-16T04:32:49.940Z,0.52
2022-12-16T04:35:36.061Z,0.80
2022-12-16T04:38:35.767Z,0.75
2022-12-16T04:41:21.762Z,0.80
2022-12-16T04:44:07.721Z,0.63
2022-12-16T04:46:53.471Z,0.70
2022-12-16T04:49:39.537Z,0.70
2022-12-16T04:52:25.728Z,0.70
2022-12-16T04:55:11.449Z,0.70
2022-12-16T04:57:57.405Z,0.70
2022-12-16T05:00:43.973Z,0.80
2022-12-16T05:03:29.978Z,0.70
2022-12-16T05:06:15.767Z,0.90
2022-12-16T05:09:01.681Z,0.90
2022-12-16T05:11:47.547Z,0.70
2022-12-16T05:14:33.405Z,0.60
2022-12-16T05:17:19.196Z,0.70
2022-12-16T05:20:04.969Z,0.70
2022-12-16T05:22:51.447Z,0.80
2022-12-16T05:25:37.277Z,0.80
2022-12-16T05:28:23.008Z,0.70
2022-12-16T05:31:08.867Z,0.55
2022-12-16T05:33:54.562Z,0.70
2022-12-16T05:36:40.527Z,0.60
2022-12-16T05:39:26.398Z,0.85
2022-12-16T05:42:12.588Z,0.70
2022-12-16T05:44:58.907Z,0.70
2022-12-16T05:47:45.417Z,0.90
2022-12-16T05:50:31.899Z,0.80
2022-12-16T05:53:17.677Z,0.80
2022-12-16T05:56:03.533Z,1.10
2022-12-16T05:58:49.836Z,0.90
2022-12-16T06:01:35.966Z,0.88
2022-12-16T06:04:21.924Z,0.90
2022-12-16T06:07:07.870Z,0.90
2022-12-16T06:09:56.898Z,1.15
2022-12-16T06:12:43.243Z,1.10
2022-12-16T06:15:29.904Z,1.40
2022-12-16T06:18:15.636Z,1.20
2022-12-16T06:21:01.804Z,1.20
2022-12-16T06:23:47.547Z,1.30
2022-12-16T06:26:33.903Z,1.20
2022-12-16T06:29:19.503Z,1.40
2022-12-16T06:32:05.201Z,1.42
2022-12-16T06:34:50.952Z,1.63
2022-12-16T06:37:36.530Z,1.70
2022-12-16T06:40:23.196Z,1.80
2022-12-16T06:43:08.854Z,1.90
2022-12-16T06:45:54.658Z,1.58
2022-12-16T06:48:40.745Z,1.80
2022-12-16T06:51:26.362Z,1.83
2022-12-16T06:54:12.272Z,1.77
2022-12-16T06:56:58.265Z,1.92
2022-12-16T06:59:44.029Z,1.60
2022-12-16T07:02:37.344Z,1.75
2022-12-16T07:05:23.889Z,1.88
2022-12-16T07:08:10.587Z,1.60
2022-12-16T07:11:03.411Z,2.00
2022-12-16T07:13:59.560Z,2.00
2022-12-16T07:16:45.289Z,2.03
2022-12-16T07:19:31.349Z,2.08
2022-12-16T07:22:17.484Z,2.15
2022-12-16T07:25:03.138Z,2.08
2022-12-16T07:27:49.128Z,2.33
2022-12-16T07:30:35.442Z,2.17
2022-12-16T07:33:21.117Z,2.10
2022-12-16T07:36:06.747Z,2.22
2022-12-16T07:38:52.306Z,2.75
2022-12-16T07:41:38.078Z,2.63
2022-12-16T07:44:24.074Z,2.70
2022-12-16T07:47:09.863Z,2.63
2022-12-16T07:49:55.699Z,2.00
2022-12-16T07:52:42.342Z,2.08
2022-12-16T07:55:48.022Z,2.28
2022-12-16T07:58:34.108Z,2.33
2022-12-16T08:01:20.351Z,2.35
2022-12-16T08:04:06.317Z,2.45
2022-12-16T10:48:24.098Z,2.00
2022-12-16T10:51:09.923Z,1.70
2022-12-16T10:53:55.620Z,2.00
2022-12-16T10:56:53.113Z,1.77
2022-12-16T10:59:38.883Z,1.60
2022-12-16T11:02:38.536Z,1.67
2022-12-16T11:05:48.333Z,1.48
2022-12-16T11:08:49.743Z,1.80
2022-12-16T11:11:47.579Z,1.83
2022-12-16T11:15:12.633Z,1.63
2022-12-16T11:17:55.908Z,1.30
2022-12-16T11:20:44.787Z,1.70
2022-12-16T11:23:43.474Z,1.42
2022-12-16T11:26:38.046Z,1.70
2022-12-16T11:29:34.285Z,1.50
2022-12-16T11:32:35.386Z,1.30
2022-12-16T11:35:24.173Z,1.42
2022-12-16T11:38:13.408Z,1.42
2022-12-16T11:41:00.403Z,1.30
2022-12-16T11:43:48.339Z,1.52
2022-12-16T11:46:47.054Z,1.38
2022-12-16T11:49:50.057Z,1.38
2022-12-16T11:52:39.949Z,1.38
2022-12-16T11:59:03.306Z,1.33
2022-12-16T12:01:52.089Z,1.30
2022-12-16T12:04:42.113Z,1.33
2022-12-16T12:07:47.202Z,1.30
2022-12-16T12:10:49.676Z,1.45
2022-12-16T12:14:08.334Z,1.30
2022-12-16T12:17:05.626Z,1.20
2022-12-16T12:20:11.035Z,1.27
2022-12-16T12:22:58.256Z,1.55
2022-12-16T12:26:23.742Z,1.30
2022-12-16T12:29:27.362Z,1.20
2022-12-16T12:32:20.818Z,1.40
2022-12-16T12:35:06.629Z,1.10
2022-12-16T12:38:05.503Z,1.20
2022-12-16T12:41:11.101Z,1.20
2022-12-16T12:44:11.646Z,1.10
2022-12-16T12:47:16.084Z,1.20
2022-12-16T12:50:16.799Z,1.15
2022-12-16T12:53:21.451Z,1.23
2022-12-16T12:56:23.995Z,1.30
2022-12-16T12:59:14.079Z,1.30
2022-12-16T13:02:05.086Z,1.20
2022-12-16T13:04:52.578Z,1.30
2022-12-16T13:07:39.252Z,0.95
2022-12-16T13:10:39.221Z,1.20
2022-12-16T13:13:52.652Z,1.30
2022-12-16T13:17:13.653Z,1.50
2022-12-16T13:20:01.348Z,1.33
2022-12-16T13:22:57.202Z,1.55
2022-12-16T13:26:10.102Z,1.80
2022-12-16T13:29:01.002Z,1.95
2022-12-16T13:31:48.505Z,1.63
2022-12-16T13:34:34.217Z,1.40
2022-12-16T13:37:29.843Z,1.55
2022-12-16T13:40:44.747Z,1.20
2022-12-16T13:44:09.086Z,1.50
2022-12-16T13:47:15.104Z,1.58
2022-12-16T13:50:09.612Z,1.33
2022-12-16T13:53:19.471Z,1.65
2022-12-16T13:56:15.432Z,1.20
2022-12-16T13:59:06.727Z,1.10
2022-12-16T14:02:10.844Z,1.50
2022-12-16T14:05:01.604Z,1.75
2022-12-16T14:08:05.325Z,0.98
2022-12-16T14:10:59.858Z,1.20
2022-12-16T14:14:03.842Z,1.50
2022-12-16T14:17:13.811Z,1.30
2022-12-16T14:20:42.408Z,1.30
2022-12-16T14:23:55.911Z,1.20
2022-12-16T14:26:41.828Z,1.05
2022-12-16T14:29:46.928Z,1.10
2022-12-16T14:32:51.072Z,1.10
2022-12-16T14:35:38.351Z,1.00
2022-12-16T14:38:32.897Z,1.10
2022-12-16T14:41:18.607Z,1.20
2022-12-16T14:44:04.372Z,1.05
2022-12-16T14:46:51.462Z,1.20
2022-12-16T14:49:43.351Z,1.08
2022-12-16T14:53:00.397Z,1.40
2022-12-16T14:55:53.928Z,1.40
2022-12-16T14:58:42.002Z,1.20
2022-12-16T15:01:38.439Z,0.93
2022-12-16T15:04:39.225Z,1.20
2022-12-16T15:07:31.530Z,1.02
2022-12-16T15:10:39.259Z,1.20
2022-12-16T15:13:29.799Z,1.20
2022-12-16T15:16:16.091Z,1.00
2022-12-16T15:19:05.835Z,1.20
2022-12-16T15:21:55.105Z,1.60
2022-12-16T15:24:44.430Z,1.50
2022-12-16T15:27:55.052Z,2.20
2022-12-16T15:31:04.779Z,1.80
2022-12-16T15:33:53.982Z,1.73
2022-12-16T15:36:43.449Z,1.52
2022-12-16T15:39:55.440Z,1.50
2022-12-16T15:42:48.018Z,1.60
2022-12-16T15:45:47.759Z,1.48
2022-12-16T15:48:51.825Z,1.52
2022-12-16T15:51:59.642Z,1.80
2022-12-16T15:54:46.133Z,1.58
2022-12-16T15:57:53.385Z,1.33
2022-12-16T16:00:47.909Z,1.40
2022-12-16T16:03:41.674Z,1.30
2022-12-16T16:06:45.400Z,1.50
2022-12-16T16:09:43.828Z,1.50
2022-12-16T16:12:32.197Z,1.40
2022-12-16T16:15:34.726Z,1.17
2022-12-16T16:18:23.851Z,1.20
2022-12-16T16:21:10.807Z,1.52
2022-12-16T16:23:57.193Z,1.33
2022-12-16T16:26:46.537Z,1.38
2022-12-16T16:29:32.856Z,1.35
2022-12-16T16:32:20.036Z,1.40
2022-12-16T16:35:05.742Z,1.30
2022-12-16T16:37:51.486Z,1.48
2022-12-16T16:40:37.616Z,1.33
2022-12-16T16:43:23.586Z,1.73
2022-12-16T16:46:14.206Z,1.50
2022-12-16T16:49:00.939Z,1.50
2022-12-16T16:51:47.269Z,1.50
2022-12-16T16:54:33.479Z,1.40
2022-12-16T16:57:20.896Z,1.60
2022-12-16T17:00:06.684Z,1.45
2022-12-16T17:02:52.666Z,1.60
2022-12-16T17:05:38.876Z,1.33
2022-12-16T17:08:24.877Z,1.60
2022-12-16T17:11:11.125Z,1.45
2022-12-16T17:13:57.206Z,1.48
2022-12-16T17:16:43.176Z,1.80
2022-12-16T17:19:29.353Z,1.60
2022-12-16T17:22:14.985Z,2.00
2022-12-16T17:25:01.069Z,2.00
2022-12-16T17:27:47.300Z,2.60
2022-12-16T17:30:46.625Z,2.53
2022-12-16T17:33:35.452Z,2.65
2022-12-16T17:36:21.613Z,2.80
2022-12-16T17:39:07.685Z,2.22
2022-12-16T17:41:54.165Z,1.95
2022-12-16T17:44:39.924Z,2.33
2022-12-16T17:47:25.770Z,2.00
2022-12-16T17:50:12.024Z,2.30
2022-12-16T17:52:57.911Z,2.40
2022-12-16T17:55:43.727Z,2.13
2022-12-16T17:58:31.073Z,2.05
2022-12-16T18:01:22.180Z,2.50
2022-12-16T18:04:08.501Z,2.70
2022-12-16T18:06:54.914Z,3.28
2022-12-16T18:09:41.016Z,3.03
2022-12-16T18:12:26.835Z,3.75
2022-12-16T18:15:12.610Z,3.53
2022-12-16T18:17:58.570Z,3.95
2022-12-16T18:20:44.388Z,4.80
2022-12-16T18:23:30.213Z,4.40
2022-12-16T18:26:21.713Z,5.00
2022-12-16T18:29:07.516Z,5.70
2022-12-16T18:31:54.070Z,5.50
2022-12-16T18:34:40.080Z,5.35
2022-12-16T18:37:26.224Z,5.13
2022-12-16T18:40:12.204Z,5.70
2022-12-16T18:42:58.160Z,5.75
2022-12-16T18:45:44.264Z,6.15
2022-12-16T18:48:30.456Z,5.95
2022-12-16T18:51:18.122Z,6.90
2022-12-16T18:54:04.555Z,6.75
2022-12-16T18:56:50.454Z,6.70
2022-12-16T18:59:36.117Z,6.60
2022-12-16T19:02:21.966Z,6.95
2022-12-16T19:05:07.838Z,7.22
2022-12-16T19:07:53.558Z,6.85
2022-12-16T19:10:39.678Z,7.30
2022-12-16T19:13:25.439Z,7.75
2022-12-16T19:16:16.040Z,7.63
2022-12-16T19:19:02.480Z,7.93
2022-12-16T19:28:00.898Z,8.07
2022-12-16T19:30:46.910Z,8.43
2022-12-16T19:33:33.421Z,9.00
2022-12-16T19:36:19.253Z,9.45
2022-12-16T19:39:05.121Z,9.40
2022-12-16T19:41:50.849Z,9.77
2022-12-16T19:44:37.470Z,8.15
2022-12-16T19:47:23.379Z,8.00
2022-12-16T19:50:09.174Z,7.95
2022-12-16T19:52:56.045Z,7.40
2022-12-16T19:55:42.151Z,7.80
2022-12-16T19:58:27.772Z,8.00
2022-12-16T20:01:13.882Z,9.10
2022-12-16T20:03:59.685Z,8.68
2022-12-16T20:06:59.002Z,9.13
2022-12-16T20:09:45.369Z,8.07
2022-12-16T20:12:31.326Z,9.15
2022-12-16T20:15:17.246Z,9.00
2022-12-16T20:18:04.686Z,8.98
2022-12-16T20:20:51.792Z,9.38
2022-12-16T20:23:37.711Z,9.65
2022-12-16T20:26:23.699Z,10.43
2022-12-16T20:29:09.536Z,10.10
2022-12-16T20:31:56.070Z,9.90
2022-12-16T20:34:41.985Z,9.80
2022-12-16T20:37:28.142Z,8.88
2022-12-16T20:40:14.380Z,10.13
2022-12-16T20:43:00.303Z,9.98
2022-12-16T20:45:46.133Z,10.15
2022-12-16T20:48:36.206Z,10.20
2022-12-16T20:51:26.745Z,10.55
2022-12-16T20:54:13.437Z,10.80
2022-12-16T20:56:59.264Z,9.85
2022-12-16T20:59:45.253Z,10.13
2022-12-16T21:05:39.558Z,10.32
2022-12-16T21:08:25.386Z,10.13
2022-12-16T21:11:15.828Z,10.50
2022-12-16T21:14:01.873Z,10.30
2022-12-16T21:14:28.272Z,8.40
2022-12-16T21:16:47.992Z,10.75
2022-12-16T21:19:34.088Z,10.23
2022-12-16T21:22:20.244Z,10.23
2022-12-16T21:25:06.197Z,11.23
2022-12-16T21:27:52.105Z,10.48
2022-12-16T21:30:38.788Z,10.50
2022-12-16T21:33:24.691Z,9.82
2022-12-16T21:36:13.700Z,9.63
2022-12-16T21:38:59.591Z,9.10
2022-12-16T21:41:45.633Z,9.52
2022-12-16T21:44:31.806Z,9.70
2022-12-16T21:47:17.583Z,10.48
2022-12-16T21:50:03.432Z,12.13
2022-12-16T21:52:49.272Z,10.43
2022-12-16T21:55:35.386Z,10.60
2022-12-16T21:58:21.276Z,10.60
2022-12-16T22:01:17.070Z,11.70
2022-12-16T22:04:03.153Z,11.73
2022-12-16T22:06:49.282Z,12.70
2022-12-16T22:09:35.806Z,12.60
2022-12-16T22:12:21.979Z,13.18
2022-12-16T22:15:07.648Z,13.60
2022-12-16T22:17:58.394Z,13.10
2022-12-16T22:20:45.429Z,13.02
2022-12-16T22:23:31.479Z,13.73
2022-12-16T22:26:18.813Z,12.77
2022-12-16T22:29:05.248Z,12.95
2022-12-16T22:31:51.083Z,12.70
2022-12-16T22:34:38.001Z,12.88
2022-12-16T22:37:23.781Z,12.50
2022-12-16T22:40:09.437Z,12.07
2022-12-16T22:42:56.292Z,11.65
2022-12-16T22:45:42.406Z,11.23
2022-12-16T22:48:30.966Z,11.00
2022-12-16T22:51:17.121Z,11.68
2022-12-16T22:54:16.600Z,10.60
2022-12-16T22:57:02.250Z,10.98
2022-12-16T22:59:48.585Z,10.82
2022-12-16T23:02:34.326Z,10.30
2022-12-16T23:05:25.280Z,10.25
2022-12-16T23:08:13.569Z,10.13
2022-12-16T23:11:00.594Z,10.00
2022-12-16T23:13:46.885Z,10.10
2022-12-16T23:16:32.951Z,9.80
2022-12-16T23:19:19.173Z,9.32
2022-12-16T23:22:06.267Z,9.02
2022-12-16T23:25:12.030Z,9.48
2022-12-16T23:30:43.550Z,8.90
2022-12-16T23:33:29.265Z,8.68
2022-12-16T23:36:14.981Z,7.88
2022-12-16T23:39:00.666Z,8.82
2022-12-16T23:41:46.504Z,8.10
2022-12-16T23:44:32.219Z,7.97
2022-12-16T23:47:18.137Z,7.82
2022-12-16T23:50:03.870Z,7.30
2022-12-16T23:52:49.822Z,7.65
2022-12-16T23:55:35.580Z,7.15
2022-12-16T23:58:23.758Z,7.18
